Time;durP1;ratioP1;P1;durP2;ratioP2;P2;SDS_P1;SDS_P2;PMS_P1;PMS_P2;Temp;Humidity;BMP_temperature;BMP_pressure;BME280_temperature;BME280_humidity;BME280_pressure;Samples;Min_cycle;Max_cycle;Signal;HPM_P1;HPM_P2
2021/01/17 00:00:46;;;;;;;18.87;9.17;;;-4.50;99.90;;;;;;5006841;28;20098;-80
2021/01/17 00:03:12;;;;;;;17.13;8.37;;;-4.60;99.90;;;;;;5013809;28;20187;-80
2021/01/17 00:05:38;;;;;;;19.10;10.13;;;-4.40;99.90;;;;;;5012949;28;20521;-80
2021/01/17 00:08:09;;;;;;;19.13;10.03;;;-4.30;99.90;;;;;;5004658;28;20462;-80
2021/01/17 00:10:35;;;;;;;14.93;8.23;;;-4.40;99.90;;;;;;5025676;28;20213;-80
2021/01/17 00:13:01;;;;;;;20.30;10.07;;;-4.40;99.90;;;;;;5014650;28;20086;-80
2021/01/17 00:15:27;;;;;;;16.97;8.70;;;-4.40;99.90;;;;;;5005880;28;20105;-80
2021/01/17 00:17:52;;;;;;;16.47;8.90;;;-4.40;99.90;;;;;;5002541;28;20445;-80
2021/01/17 00:20:20;;;;;;;18.97;8.77;;;-4.30;99.90;;;;;;5004632;28;20469;-80
2021/01/17 00:22:47;;;;;;;19.87;9.33;;;-4.30;99.90;;;;;;5000430;28;20601;-80
2021/01/17 00:25:15;;;;;;;16.27;8.80;;;-4.40;99.90;;;;;;5007301;28;20088;-80
2021/01/17 00:27:41;;;;;;;22.10;9.63;;;-4.40;99.90;;;;;;5014239;28;20085;-80
2021/01/17 00:30:08;;;;;;;18.37;8.90;;;-4.30;99.90;;;;;;5011302;28;20102;-80
2021/01/17 00:32:35;;;;;;;19.30;9.57;;;-4.30;99.90;;;;;;5011885;28;20580;-80
2021/01/17 00:35:01;;;;;;;14.87;7.63;;;-4.40;99.90;;;;;;5003619;28;20096;-80
2021/01/17 00:37:28;;;;;;;18.07;9.20;;;-4.40;99.90;;;;;;5012433;28;20090;-79
2021/01/17 00:39:54;;;;;;;14.67;8.63;;;-4.30;99.90;;;;;;5011135;28;20231;-80
2021/01/17 00:42:19;;;;;;;15.33;8.17;;;-4.40;99.90;;;;;;5009540;28;20118;-80
2021/01/17 00:44:45;;;;;;;18.33;8.90;;;-4.30;99.90;;;;;;5012095;28;20082;-80
2021/01/17 00:47:12;;;;;;;18.00;8.20;;;-4.20;99.90;;;;;;5008223;28;20083;-80
2021/01/17 00:49:37;;;;;;;18.03;8.17;;;-4.20;99.90;;;;;;4996791;28;20453;-80
2021/01/17 00:52:03;;;;;;;14.10;7.77;;;-4.20;99.90;;;;;;5009470;28;20079;-80
2021/01/17 00:54:29;;;;;;;17.33;8.33;;;-3.80;99.90;;;;;;5003331;28;20556;-80
2021/01/17 00:56:54;;;;;;;17.17;8.90;;;-4.00;99.90;;;;;;4997562;28;20090;-80
2021/01/17 00:59:20;;;;;;;14.67;7.63;;;-4.20;99.90;;;;;;5010416;28;20170;-80
2021/01/17 01:01:47;;;;;;;19.50;9.60;;;-4.30;99.90;;;;;;5004484;28;20086;-79
2021/01/17 01:04:17;;;;;;;16.00;8.80;;;-4.20;99.90;;;;;;5010586;28;20526;-80
2021/01/17 01:06:43;;;;;;;14.30;8.00;;;-4.10;99.90;;;;;;5009816;28;20070;-80
2021/01/17 01:09:15;;;;;;;17.30;8.43;;;-4.00;99.90;;;;;;5012079;28;20118;-80
2021/01/17 01:11:41;;;;;;;16.07;8.93;;;-4.00;99.90;;;;;;5013622;28;20098;-80
2021/01/17 01:14:08;;;;;;;15.23;8.43;;;-4.00;99.90;;;;;;5009290;28;20153;-80
2021/01/17 01:16:34;;;;;;;14.37;7.67;;;-4.10;99.90;;;;;;5007290;28;20102;-80
2021/01/17 01:19:01;;;;;;;16.07;7.97;;;-4.20;99.90;;;;;;5007875;28;20086;-80
2021/01/17 01:21:32;;;;;;;17.23;8.30;;;-4.30;99.90;;;;;;5012686;28;20109;-80
2021/01/17 01:23:58;;;;;;;17.17;9.10;;;-4.30;99.90;;;;;;5003553;28;20079;-80
2021/01/17 01:26:24;;;;;;;17.73;8.83;;;-4.40;99.90;;;;;;5013790;28;20145;-80
2021/01/17 01:28:52;;;;;;;15.50;8.13;;;-4.60;99.90;;;;;;5008805;28;20098;-80
2021/01/17 01:31:25;;;;;;;16.47;8.47;;;-4.60;99.90;;;;;;4997292;28;20111;-80
2021/01/17 01:33:52;;;;;;;16.47;8.47;;;-4.80;99.90;;;;;;5013677;28;20100;-80
2021/01/17 01:36:26;;;;;;;18.13;9.00;;;-4.80;99.90;;;;;;5004561;28;20094;-80
2021/01/17 01:38:54;;;;;;;14.40;8.10;;;-4.70;99.90;;;;;;4998450;28;20457;-79
2021/01/17 01:41:19;;;;;;;14.97;8.43;;;-4.80;99.90;;;;;;5011492;28;20098;-80
2021/01/17 01:43:46;;;;;;;20.70;9.43;;;-4.80;99.90;;;;;;5012594;28;20105;-80
2021/01/17 01:47:08;;;;;;;;;;;;;;;;;;;;;
2021/01/17 01:49:36;;;;;;;17.23;7.80;;;-4.80;99.90;;;;;;5018722;28;20150;-80
2021/01/17 01:52:02;;;;;;;16.83;7.97;;;-4.90;99.90;;;;;;5012895;28;20078;-80
2021/01/17 01:54:28;;;;;;;15.03;7.47;;;-4.80;99.90;;;;;;5015275;28;20082;-80
2021/01/17 01:56:55;;;;;;;17.90;8.47;;;-4.80;99.90;;;;;;5016377;28;20089;-80
2021/01/17 01:59:21;;;;;;;16.93;8.33;;;-4.90;99.90;;;;;;5005870;28;20084;-80
2021/01/17 02:01:48;;;;;;;16.97;8.07;;;-5.00;99.90;;;;;;5010859;28;20074;-80
2021/01/17 02:04:14;;;;;;;15.07;7.13;;;-4.80;99.90;;;;;;5014449;28;20067;-80
2021/01/17 02:06:54;;;;;;;13.00;7.43;;;-4.80;99.90;;;;;;5007080;28;20560;-80
2021/01/17 02:09:28;;;;;;;13.93;7.70;;;-4.90;99.90;;;;;;5010806;28;20081;-80
2021/01/17 02:12:05;;;;;;;17.43;7.93;;;-4.70;99.90;;;;;;5014997;28;20209;-80
2021/01/17 02:14:31;;;;;;;15.97;7.93;;;-4.70;99.90;;;;;;5015918;28;20078;-80
2021/01/17 02:16:59;;;;;;;17.03;8.43;;;-4.70;99.90;;;;;;5009311;28;20568;-80
2021/01/17 02:19:30;;;;;;;15.37;7.77;;;-4.60;99.90;;;;;;5006016;28;20075;-80
2021/01/17 02:22:01;;;;;;;13.53;7.80;;;-4.60;99.90;;;;;;5011943;28;20078;-80
2021/01/17 02:24:54;;;;;;;15.47;8.40;;;-4.60;99.90;;;;;;5019916;28;20078;-80
2021/01/17 02:27:19;;;;;;;16.17;8.13;;;-4.50;99.90;;;;;;5007201;28;20097;-80
2021/01/17 02:29:48;;;;;;;18.20;8.50;;;-4.60;99.90;;;;;;5016067;28;20090;-80
2021/01/17 02:32:16;;;;;;;18.57;8.73;;;-4.60;99.90;;;;;;5014896;28;20094;-80
2021/01/17 02:34:42;;;;;;;16.10;8.10;;;-4.40;99.90;;;;;;5017415;28;20102;-80
2021/01/17 02:37:14;;;;;;;16.97;8.47;;;-4.50;99.90;;;;;;5015303;28;20491;-80
2021/01/17 02:40:04;;;;;;;16.07;8.87;;;-4.30;99.90;;;;;;5014656;28;20140;-80
2021/01/17 02:42:30;;;;;;;15.97;8.40;;;-4.30;99.90;;;;;;5015591;28;20078;-80
2021/01/17 02:44:57;;;;;;;19.37;8.97;;;-4.30;99.90;;;;;;5013328;28;20166;-80
2021/01/17 02:47:23;;;;;;;15.73;8.20;;;-4.50;99.90;;;;;;5017324;28;20537;-80
2021/01/17 02:49:50;;;;;;;17.17;8.83;;;-4.40;99.90;;;;;;5008216;28;20178;-80
2021/01/17 02:52:17;;;;;;;17.30;8.70;;;-4.40;99.90;;;;;;5015670;28;20082;-80
2021/01/17 02:54:45;;;;;;;19.53;9.43;;;-4.20;99.90;;;;;;5012842;28;20101;-80
2021/01/17 02:57:15;;;;;;;18.27;8.63;;;-4.30;99.90;;;;;;5016692;28;20086;-80
2021/01/17 02:59:59;;;;;;;20.00;9.23;;;-4.40;99.90;;;;;;5010421;28;20492;-80
2021/01/17 03:02:45;;;;;;;19.27;9.03;;;-4.40;99.90;;;;;;5013999;28;20212;-80
2021/01/17 03:05:14;;;;;;;16.77;8.97;;;-4.20;99.90;;;;;;5009958;28;20132;-80
2021/01/17 03:07:40;;;;;;;16.60;8.73;;;-4.10;99.90;;;;;;5009445;28;20090;-79
2021/01/17 03:10:08;;;;;;;18.27;9.00;;;-4.20;99.90;;;;;;5004041;28;20095;-79
2021/01/17 03:12:34;;;;;;;14.90;8.00;;;-4.30;99.90;;;;;;5005580;28;20131;-79
2021/01/17 03:15:04;;;;;;;16.17;8.60;;;-4.40;99.90;;;;;;5002733;28;20252;-79
2021/01/17 03:17:29;;;;;;;21.17;9.97;;;-4.50;99.90;;;;;;5011193;28;20074;-79
2021/01/17 03:19:55;;;;;;;17.90;9.43;;;-4.40;99.90;;;;;;5014128;28;20261;-79
2021/01/17 03:22:20;;;;;;;18.73;9.37;;;-4.00;99.90;;;;;;5011877;28;20097;-80
2021/01/17 03:24:46;;;;;;;18.33;8.97;;;-4.30;99.90;;;;;;5009335;28;20081;-80
2021/01/17 03:27:12;;;;;;;19.53;9.83;;;-4.50;99.90;;;;;;5007329;28;20124;-80
2021/01/17 03:29:37;;;;;;;22.00;9.93;;;-4.60;99.90;;;;;;5001199;28;20091;-80
2021/01/17 03:32:03;;;;;;;17.50;8.57;;;-4.40;99.90;;;;;;5012815;28;20078;-80
2021/01/17 03:34:29;;;;;;;15.83;8.57;;;-4.50;99.90;;;;;;5005882;28;20296;-80
2021/01/17 03:36:54;;;;;;;18.03;9.27;;;-4.30;99.90;;;;;;5013346;28;20078;-80
2021/01/17 03:39:20;;;;;;;15.90;8.20;;;-4.10;99.90;;;;;;5015162;28;20082;-80
2021/01/17 03:41:46;;;;;;;16.90;8.50;;;-3.90;99.90;;;;;;5014399;28;20085;-80
2021/01/17 03:44:11;;;;;;;17.10;8.33;;;-3.70;99.90;;;;;;5014484;28;20086;-80
2021/01/17 03:46:37;;;;;;;16.73;8.17;;;-3.60;99.90;;;;;;5010077;28;20083;-80
2021/01/17 03:49:02;;;;;;;15.80;9.33;;;-3.90;99.90;;;;;;5003381;28;20079;-80
2021/01/17 03:51:28;;;;;;;19.07;8.90;;;-3.80;99.90;;;;;;5009530;28;20102;-79
2021/01/17 03:53:53;;;;;;;17.03;8.70;;;-3.80;99.90;;;;;;5006457;28;20345;-78
2021/01/17 03:56:19;;;;;;;16.03;9.07;;;-3.90;99.90;;;;;;4995732;28;20154;-80
2021/01/17 03:58:44;;;;;;;19.80;8.80;;;-4.00;99.90;;;;;;5009016;28;20190;-80
2021/01/17 04:01:10;;;;;;;18.20;9.47;;;-4.10;99.90;;;;;;5013416;28;20122;-79
2021/01/17 04:03:36;;;;;;;20.83;10.20;;;-4.00;99.90;;;;;;5013881;28;20083;-80
2021/01/17 04:06:01;;;;;;;19.60;8.60;;;-4.00;99.90;;;;;;5009880;28;20078;-80
2021/01/17 04:08:27;;;;;;;17.97;9.13;;;-4.00;99.90;;;;;;5007527;28;20078;-80
2021/01/17 04:10:52;;;;;;;17.23;9.40;;;-4.00;99.90;;;;;;5014250;28;20094;-80
2021/01/17 04:13:18;;;;;;;21.00;9.90;;;-3.80;99.90;;;;;;5013200;28;20449;-80
2021/01/17 04:15:44;;;;;;;19.23;9.63;;;-3.70;99.90;;;;;;5011537;28;20457;-80
2021/01/17 04:18:09;;;;;;;18.83;9.73;;;-3.60;99.90;;;;;;5005021;28;20090;-80
2021/01/17 04:20:35;;;;;;;14.83;8.70;;;-3.40;99.90;;;;;;5009310;28;20126;-80
2021/01/17 04:23:03;;;;;;;17.80;9.30;;;-3.10;99.90;;;;;;5016264;28;20157;-80
2021/01/17 04:25:29;;;;;;;18.07;8.50;;;-3.10;99.90;;;;;;5015377;28;20086;-80
2021/01/17 04:27:56;;;;;;;17.63;10.27;;;-3.10;99.90;;;;;;5009264;28;20079;-80
2021/01/17 04:30:22;;;;;;;17.47;9.23;;;-3.30;99.90;;;;;;5009669;28;20184;-80
2021/01/17 04:32:49;;;;;;;18.33;10.73;;;-3.50;99.90;;;;;;5007002;28;20082;-79
2021/01/17 04:35:15;;;;;;;18.63;9.40;;;-3.60;99.90;;;;;;5010544;28;20102;-80
2021/01/17 04:37:40;;;;;;;18.47;8.97;;;-3.70;99.90;;;;;;4996022;28;20075;-80
2021/01/17 04:40:07;;;;;;;18.40;8.97;;;-3.60;99.90;;;;;;4996190;28;20106;-80
2021/01/17 04:42:37;;;;;;;15.97;9.07;;;-3.40;99.90;;;;;;4996019;28;20078;-80
2021/01/17 04:45:06;;;;;;;16.73;9.13;;;-3.10;99.90;;;;;;5009863;28;20635;-79
2021/01/17 04:47:34;;;;;;;17.57;10.00;;;-3.10;99.90;;;;;;5006147;28;20078;-80
2021/01/17 04:50:04;;;;;;;17.87;10.43;;;-3.10;99.90;;;;;;5015020;28;20153;-80
2021/01/17 04:52:39;;;;;;;17.17;9.17;;;-2.90;99.90;;;;;;5007704;28;20086;-80
2021/01/17 04:55:05;;;;;;;16.53;8.93;;;-3.00;99.90;;;;;;5013018;28;20136;-80
2021/01/17 04:57:51;;;;;;;16.87;8.83;;;-3.20;99.90;;;;;;5011372;28;20629;-80
2021/01/17 05:00:41;;;;;;;16.70;9.07;;;-3.20;99.90;;;;;;5012431;28;20090;-80
2021/01/17 05:03:29;;;;;;;17.17;9.47;;;-3.00;99.90;;;;;;5012721;28;20081;-80
2021/01/17 05:06:14;;;;;;;16.07;8.43;;;-2.90;99.90;;;;;;5015217;28;20074;-80
2021/01/17 05:08:44;;;;;;;17.90;9.27;;;-2.90;99.90;;;;;;5016507;28;20545;-80
2021/01/17 05:11:31;;;;;;;20.20;10.10;;;-2.70;99.90;;;;;;5016819;28;20121;-80
2021/01/17 05:14:08;;;;;;;16.93;8.97;;;-2.50;99.90;;;;;;5014096;28;20074;-80
2021/01/17 05:16:38;;;;;;;15.27;8.10;;;-2.50;99.90;;;;;;5001467;28;20561;-80
2021/01/17 05:19:03;;;;;;;17.57;8.33;;;-2.60;99.90;;;;;;4996794;28;20597;-80
2021/01/17 05:21:32;;;;;;;18.57;8.87;;;-2.60;99.90;;;;;;5006385;28;20137;-80
2021/01/17 05:24:00;;;;;;;16.73;10.03;;;-2.60;99.90;;;;;;5011507;28;20597;-79
2021/01/17 05:26:26;;;;;;;14.50;8.90;;;-2.70;99.90;;;;;;5009162;28;20078;-80
2021/01/17 05:28:51;;;;;;;14.67;8.80;;;-2.90;99.90;;;;;;5009684;28;20124;-79
2021/01/17 05:31:23;;;;;;;17.40;8.83;;;-2.90;99.90;;;;;;5011932;28;20112;-79
2021/01/17 05:33:50;;;;;;;13.77;7.87;;;-2.60;99.90;;;;;;5007202;28;20110;-79
2021/01/17 05:36:16;;;;;;;17.87;8.43;;;-2.70;99.90;;;;;;5010421;28;20134;-80
2021/01/17 05:38:41;;;;;;;14.83;7.87;;;-2.90;99.90;;;;;;5005206;28;20108;-80
2021/01/17 05:41:26;;;;;;;17.63;9.30;;;-3.10;99.90;;;;;;5016029;28;20121;-80
2021/01/17 05:43:51;;;;;;;13.20;7.73;;;-3.40;99.90;;;;;;5002453;28;20457;-80
2021/01/17 05:46:17;;;;;;;11.97;7.43;;;-3.50;99.90;;;;;;4998161;28;20083;-80
2021/01/17 05:48:42;;;;;;;12.93;7.30;;;-3.50;99.90;;;;;;5014345;28;20161;-79
2021/01/17 05:51:08;;;;;;;11.37;7.00;;;-3.60;99.90;;;;;;5013004;28;20141;-80
2021/01/17 05:53:34;;;;;;;13.47;7.50;;;-3.60;99.90;;;;;;5014201;28;20473;-80
2021/01/17 05:56:15;;;;;;;12.27;6.67;;;-3.70;99.90;;;;;;5007770;28;20565;-80
2021/01/17 05:58:44;;;;;;;10.83;6.17;;;-3.70;99.90;;;;;;5012600;28;20078;-80
2021/01/17 06:01:17;;;;;;;12.13;7.20;;;-3.70;99.90;;;;;;5017070;28;20102;-80
2021/01/17 06:03:53;;;;;;;12.57;7.30;;;-3.70;99.90;;;;;;5013215;28;20136;-80
2021/01/17 06:06:26;;;;;;;11.03;6.30;;;-3.70;99.90;;;;;;5015017;28;20127;-80
2021/01/17 06:08:57;;;;;;;12.57;7.10;;;-3.70;99.90;;;;;;5015437;28;20078;-80
2021/01/17 06:11:23;;;;;;;9.67;6.07;;;-3.60;99.90;;;;;;5018110;28;20173;-79
2021/01/17 06:13:58;;;;;;;12.87;8.00;;;-3.60;99.90;;;;;;5009078;28;20086;-79
2021/01/17 06:16:32;;;;;;;15.05;7.68;;;-3.60;99.90;;;;;;5013169;28;20472;-80
2021/01/17 06:19:00;;;;;;;14.13;7.37;;;-3.60;99.90;;;;;;5002257;28;20083;-80
2021/01/17 06:21:27;;;;;;;10.40;6.40;;;-3.70;99.90;;;;;;5015739;28;20349;-80
2021/01/17 06:24:11;;;;;;;11.47;7.23;;;-3.70;99.90;;;;;;4999797;28;20075;-80
2021/01/17 06:26:40;;;;;;;13.67;7.00;;;-3.80;99.90;;;;;;5007011;28;20090;-80
2021/01/17 06:29:10;;;;;;;10.87;6.30;;;-3.70;99.90;;;;;;5014036;28;20079;-80
2021/01/17 06:31:37;;;;;;;14.47;7.70;;;-3.60;99.90;;;;;;5016853;28;20481;-80
2021/01/17 06:34:14;;;;;;;13.27;6.73;;;-3.60;99.90;;;;;;5014105;28;20078;-80
2021/01/17 06:36:46;;;;;;;12.87;7.03;;;-3.60;99.90;;;;;;5009261;28;20133;-80
2021/01/17 06:39:26;;;;;;;12.10;7.10;;;-3.50;99.90;;;;;;5014316;28;20113;-80
2021/01/17 06:42:00;;;;;;;13.93;6.93;;;-3.40;99.90;;;;;;5010598;28;20120;-80
2021/01/17 06:44:33;;;;;;;13.50;7.13;;;-3.40;99.90;;;;;;5012969;28;20075;-80
2021/01/17 06:46:59;;;;;;;13.70;7.23;;;-3.40;99.90;;;;;;5017481;28;20113;-80
2021/01/17 06:49:27;;;;;;;11.27;6.07;;;-3.40;99.90;;;;;;5009932;28;20074;-80
2021/01/17 06:51:54;;;;;;;11.83;6.40;;;-3.40;99.90;;;;;;5012211;28;20552;-80
2021/01/17 06:54:22;;;;;;;11.03;6.47;;;-3.40;99.90;;;;;;5007467;28;20157;-80
2021/01/17 06:56:50;;;;;;;10.37;6.07;;;-3.30;99.90;;;;;;5001775;28;20095;-80
2021/01/17 06:59:32;;;;;;;7.67;5.17;;;-3.40;99.90;;;;;;5006290;28;20165;-79
2021/01/17 07:02:18;;;;;;;13.23;7.83;;;-3.50;99.90;;;;;;5011683;28;20070;-80
2021/01/17 07:04:52;;;;;;;10.73;6.68;;;-3.40;99.90;;;;;;5014582;28;20070;-80
2021/01/17 07:07:37;;;;;;;;;;;-3.30;99.90;;;;;;5007908;28;20074;-80
2021/01/17 07:10:07;;;;;;;10.47;5.83;;;-3.40;99.90;;;;;;5007015;28;19977;-80
2021/01/17 07:12:55;;;;;;;10.83;5.87;;;-3.30;99.90;;;;;;5015174;28;20098;-80
2021/01/17 07:15:28;;;;;;;9.73;4.93;;;-3.20;99.90;;;;;;5014114;28;20363;-80
2021/01/17 07:18:02;;;;;;;10.33;6.20;;;-3.10;99.90;;;;;;5014581;28;20525;-80
2021/01/17 07:20:33;;;;;;;11.68;5.43;;;-3.00;99.90;;;;;;5007500;28;20475;-80
2021/01/17 07:23:00;;;;;;;9.70;5.37;;;-3.00;99.90;;;;;;5014565;28;20075;-80
2021/01/17 07:25:30;;;;;;;9.07;5.67;;;-3.00;99.90;;;;;;5013733;28;20085;-80
2021/01/17 07:28:02;;;;;;;8.87;5.53;;;-2.90;99.90;;;;;;5014383;28;20078;-80
2021/01/17 07:30:36;;;;;;;9.50;4.87;;;-3.00;99.90;;;;;;5012775;28;20094;-79
2021/01/17 07:33:04;;;;;;;8.57;4.88;;;-3.10;99.90;;;;;;5013581;28;20084;-80
2021/01/17 07:35:36;;;;;;;11.73;5.33;;;-3.00;99.90;;;;;;5005312;28;20107;-80
2021/01/17 07:38:09;;;;;;;8.60;5.40;;;-2.90;99.90;;;;;;5002064;28;20178;-80
2021/01/17 07:40:50;;;;;;;9.17;6.10;;;-3.00;99.90;;;;;;5005553;28;20105;-80
2021/01/17 07:43:20;;;;;;;11.40;6.57;;;-3.10;99.90;;;;;;5011591;28;20147;-79
2021/01/17 07:45:46;;;;;;;10.43;5.47;;;-3.10;99.90;;;;;;5010318;28;20089;-80
2021/01/17 07:48:13;;;;;;;10.13;5.57;;;-3.10;99.90;;;;;;5006222;28;20078;-80
2021/01/17 07:50:58;;;;;;;8.97;5.60;;;-3.10;99.90;;;;;;5004449;28;20739;-80
2021/01/17 07:53:30;;;;;;;9.67;5.90;;;-3.10;99.90;;;;;;5007248;28;20136;-80
2021/01/17 07:56:03;;;;;;;8.33;4.77;;;-3.00;99.90;;;;;;5007278;28;20137;-80
2021/01/17 07:58:36;;;;;;;10.70;5.10;;;-3.00;99.90;;;;;;5008117;28;20165;-80
2021/01/17 08:01:02;;;;;;;8.27;4.90;;;-2.90;99.90;;;;;;5011705;28;20101;-80
2021/01/17 08:03:27;;;;;;;8.00;5.40;;;-3.00;99.90;;;;;;5008235;28;20435;-80
2021/01/17 08:05:55;;;;;;;9.27;5.17;;;-3.00;99.90;;;;;;5003339;28;20086;-79
2021/01/17 08:08:44;;;;;;;9.10;5.93;;;-3.00;99.90;;;;;;5004350;28;20120;-80
2021/01/17 08:11:10;;;;;;;8.27;5.27;;;-3.00;99.90;;;;;;5009113;28;20577;-81
2021/01/17 08:13:35;;;;;;;9.37;5.80;;;-3.00;99.90;;;;;;5014069;28;20102;-80
2021/01/17 08:16:11;;;;;;;9.87;6.17;;;-3.00;99.90;;;;;;5009654;28;20228;-80
2021/01/17 08:18:40;;;;;;;11.00;6.80;;;-3.00;99.90;;;;;;5013185;28;20081;-80
2021/01/17 08:21:21;;;;;;;9.63;6.60;;;-3.00;99.90;;;;;;5007981;28;20099;-80
2021/01/17 08:24:11;;;;;;;8.20;5.33;;;-3.10;99.90;;;;;;5013940;28;20074;-80
2021/01/17 08:26:57;;;;;;;9.67;5.47;;;-2.90;99.90;;;;;;5011479;28;20117;-80
2021/01/17 08:29:22;;;;;;;;;;;-2.90;99.90;;;;;;5000288;28;20078;-80
2021/01/17 08:31:48;;;;;;;8.63;5.40;;;-2.80;99.90;;;;;;4998872;28;19981;-80
2021/01/17 08:34:15;;;;;;;9.37;5.50;;;-2.80;99.90;;;;;;5003956;28;20161;-80
2021/01/17 08:36:42;;;;;;;8.33;5.43;;;-2.90;99.90;;;;;;5010991;28;20094;-80
2021/01/17 08:39:08;;;;;;;7.43;5.47;;;-2.90;99.90;;;;;;5016818;28;20070;-80
2021/01/17 08:41:35;;;;;;;10.60;6.10;;;-2.90;99.90;;;;;;5012774;28;20086;-80
2021/01/17 08:44:01;;;;;;;11.30;6.63;;;-3.00;99.90;;;;;;5012161;28;20497;-80
2021/01/17 08:46:37;;;;;;;10.87;7.10;;;-3.00;99.90;;;;;;5005734;28;20074;-78
2021/01/17 08:49:06;;;;;;;13.20;7.03;;;-3.00;99.90;;;;;;4995771;28;20145;-80
2021/01/17 08:51:31;;;;;;;13.07;7.63;;;-2.90;99.90;;;;;;4993928;28;20198;-80
2021/01/17 08:54:20;;;;;;;10.00;6.13;;;-2.90;99.90;;;;;;4993895;28;20249;-80
2021/01/17 08:56:46;;;;;;;10.43;6.73;;;-2.90;99.90;;;;;;5009896;28;20146;-80
2021/01/17 08:59:32;;;;;;;9.47;5.87;;;-2.80;99.90;;;;;;5014369;28;20078;-80
2021/01/17 09:01:59;;;;;;;13.37;6.73;;;-2.70;99.90;;;;;;5005539;28;20078;-80
2021/01/17 09:04:26;;;;;;;11.63;7.37;;;-2.70;99.90;;;;;;5008762;28;20094;-80
2021/01/17 09:06:52;;;;;;;10.70;6.27;;;-2.60;99.90;;;;;;5001083;28;20079;-80
2021/01/17 09:09:22;;;;;;;10.17;6.30;;;-2.60;99.90;;;;;;5006591;28;20074;-82
2021/01/17 09:11:49;;;;;;;9.63;6.40;;;-2.60;99.90;;;;;;5008753;28;20082;-83
2021/01/17 09:14:14;;;;;;;11.97;6.43;;;-2.60;99.90;;;;;;5006628;28;20074;-82
2021/01/17 09:16:47;;;;;;;11.87;7.50;;;-2.50;99.90;;;;;;5006733;28;20553;-83
2021/01/17 09:19:14;;;;;;;13.23;8.17;;;-2.50;99.90;;;;;;5007937;28;20074;-83
2021/01/17 09:21:40;;;;;;;10.43;6.53;;;-2.50;99.90;;;;;;5017665;28;20090;-83
2021/01/17 09:24:15;;;;;;;11.27;7.00;;;-2.30;99.90;;;;;;5010020;28;20070;-82
2021/01/17 09:26:44;;;;;;;21.30;12.03;;;-2.20;99.90;;;;;;5010408;28;20074;-82
2021/01/17 09:29:22;;;;;;;12.37;6.47;;;-2.00;99.90;;;;;;5012172;28;20113;-82
2021/01/17 09:31:52;;;;;;;10.87;5.97;;;-2.10;99.90;;;;;;5012335;28;20117;-82
2021/01/17 09:34:23;;;;;;;15.33;10.50;;;-2.00;99.90;;;;;;5013594;28;20093;-83
2021/01/17 09:36:49;;;;;;;14.73;10.17;;;-2.10;99.90;;;;;;5001067;28;20619;-82
2021/01/17 09:39:28;;;;;;;11.30;5.97;;;-1.90;99.90;;;;;;5018479;28;20079;-83
2021/01/17 09:41:54;;;;;;;187.13;70.17;;;-1.90;99.90;;;;;;5014179;28;20077;-81
2021/01/17 09:44:20;;;;;;;80.43;31.13;;;-1.90;99.90;;;;;;5001588;28;20075;-82
2021/01/17 09:46:46;;;;;;;22.17;11.07;;;-1.80;99.90;;;;;;5011385;28;20085;-82
2021/01/17 09:49:11;;;;;;;27.07;13.17;;;-1.60;99.90;;;;;;4999030;28;20087;-82
2021/01/17 09:51:37;;;;;;;9.80;5.97;;;-1.70;99.90;;;;;;5003851;28;20090;-82
2021/01/17 09:54:03;;;;;;;9.77;5.53;;;-1.80;99.90;;;;;;5012697;28;20094;-82
2021/01/17 09:56:28;;;;;;;12.67;6.90;;;-1.70;99.90;;;;;;5012518;28;20156;-82
2021/01/17 09:58:54;;;;;;;10.37;5.77;;;-1.80;99.90;;;;;;5002568;28;20083;-83
2021/01/17 10:01:20;;;;;;;16.63;11.90;;;-1.60;99.90;;;;;;5014682;28;20105;-82
2021/01/17 10:03:49;;;;;;;8.93;5.90;;;-1.60;99.90;;;;;;5011611;28;20075;-82
2021/01/17 10:06:18;;;;;;;9.37;5.90;;;-1.70;99.90;;;;;;5008303;28;20588;-82
2021/01/17 10:08:44;;;;;;;7.33;4.67;;;-1.80;99.90;;;;;;5004393;28;20082;-82
2021/01/17 10:11:10;;;;;;;14.00;9.00;;;-1.70;99.90;;;;;;5008198;28;20105;-82
2021/01/17 10:13:36;;;;;;;22.37;12.83;;;-1.80;99.90;;;;;;5003629;28;20438;-82
2021/01/17 10:16:01;;;;;;;25.07;10.10;;;-2.00;99.90;;;;;;4997237;28;20094;-82
2021/01/17 10:18:27;;;;;;;19.50;9.97;;;-2.00;99.90;;;;;;5000754;28;20157;-82
2021/01/17 10:20:56;;;;;;;16.77;8.73;;;-1.90;99.90;;;;;;5009615;28;20149;-82
2021/01/17 10:23:32;;;;;;;17.03;9.27;;;-2.20;99.90;;;;;;5014551;28;20081;-82
2021/01/17 10:25:58;;;;;;;12.00;7.67;;;-2.00;99.90;;;;;;5014263;28;20165;-83
2021/01/17 10:28:27;;;;;;;18.73;9.60;;;-1.90;99.90;;;;;;5010310;28;20223;-82
2021/01/17 10:31:00;;;;;;;12.77;8.63;;;-1.80;99.90;;;;;;5010728;28;20611;-82
2021/01/17 10:33:29;;;;;;;12.70;8.90;;;-1.90;99.90;;;;;;4997860;28;20140;-82
2021/01/17 10:35:55;;;;;;;15.73;10.17;;;-1.90;99.90;;;;;;5013752;28;20535;-82
2021/01/17 10:38:21;;;;;;;21.93;12.00;;;-2.00;99.90;;;;;;5016221;28;20125;-82
2021/01/17 10:40:48;;;;;;;18.50;10.80;;;-2.00;99.90;;;;;;5010794;28;20095;-82
2021/01/17 10:43:30;;;;;;;20.43;12.33;;;-2.00;99.90;;;;;;4996596;28;20078;-81
2021/01/17 10:46:21;;;;;;;18.83;10.60;;;-2.10;99.90;;;;;;5009485;28;20075;-82
2021/01/17 10:49:01;;;;;;;17.90;10.63;;;-2.10;99.90;;;;;;5004223;28;20525;-82
2021/01/17 10:51:39;;;;;;;16.63;10.00;;;-2.10;99.90;;;;;;4996997;28;20090;-82
2021/01/17 10:54:06;;;;;;;21.77;13.07;;;-2.20;99.90;;;;;;5003430;28;20109;-82
2021/01/17 10:56:32;;;;;;;23.77;11.70;;;-2.20;99.90;;;;;;5007814;28;20091;-83
2021/01/17 10:58:59;;;;;;;23.23;12.03;;;-2.10;99.90;;;;;;5019652;28;20083;-83
2021/01/17 11:01:33;;;;;;;22.80;13.57;;;-2.00;99.90;;;;;;5009106;28;20122;-82
2021/01/17 11:04:00;;;;;;;22.70;12.63;;;-1.90;99.90;;;;;;5004725;28;20226;-82
2021/01/17 11:06:27;;;;;;;20.53;12.20;;;-1.90;99.90;;;;;;5009632;28;20121;-82
2021/01/17 11:08:58;;;;;;;17.93;10.83;;;-1.90;99.90;;;;;;5007803;28;20129;-82
2021/01/17 11:11:29;;;;;;;20.33;11.93;;;-1.80;99.90;;;;;;5013283;28;20137;-82
2021/01/17 11:13:59;;;;;;;22.83;12.70;;;-1.80;99.90;;;;;;5007862;28;20089;-83
2021/01/17 11:16:37;;;;;;;23.43;13.87;;;-1.60;99.90;;;;;;5005049;28;20094;-82
2021/01/17 11:19:04;;;;;;;22.80;13.47;;;-1.60;99.90;;;;;;5006224;28;20518;-83
2021/01/17 11:21:31;;;;;;;55.43;28.70;;;-1.60;99.90;;;;;;5009617;28;20553;-82
2021/01/17 11:23:57;;;;;;;33.30;17.17;;;-1.70;99.90;;;;;;5003338;28;20310;-83
2021/01/17 11:26:24;;;;;;;21.23;12.03;;;-1.70;99.90;;;;;;5012479;28;20082;-82
2021/01/17 11:28:52;;;;;;;24.23;13.60;;;-1.60;99.90;;;;;;5014253;28;20086;-82
2021/01/17 11:31:19;;;;;;;24.47;14.30;;;-1.70;99.90;;;;;;5003211;28;20157;-83
2021/01/17 11:33:47;;;;;;;27.60;13.77;;;-1.60;99.90;;;;;;4997009;28;20138;-83
2021/01/17 11:36:19;;;;;;;43.27;22.93;;;-1.50;99.90;;;;;;5003661;28;20528;-83
2021/01/17 11:38:48;;;;;;;22.87;13.87;;;-1.40;99.90;;;;;;5013068;28;20106;-83
2021/01/17 11:41:15;;;;;;;22.23;12.47;;;-1.40;99.90;;;;;;5011032;28;20133;-83
2021/01/17 11:43:41;;;;;;;25.30;13.53;;;-1.40;99.90;;;;;;5010002;28;20074;-83
2021/01/17 11:46:09;;;;;;;24.10;13.60;;;-1.50;99.90;;;;;;5011050;28;20182;-83
2021/01/17 11:48:36;;;;;;;24.97;14.43;;;-1.40;99.90;;;;;;5008766;28;20510;-83
2021/01/17 11:51:04;;;;;;;24.53;14.33;;;-1.20;99.90;;;;;;5008547;28;20148;-83
2021/01/17 11:53:31;;;;;;;24.90;14.07;;;-1.40;99.90;;;;;;5004767;28;20137;-83
2021/01/17 11:55:57;;;;;;;26.65;14.25;;;-1.40;99.90;;;;;;5004731;28;20098;-83
2021/01/17 11:58:26;;;;;;;20.93;13.10;;;-1.40;99.90;;;;;;5006460;28;20661;-82
2021/01/17 12:01:02;;;;;;;23.02;13.57;;;-1.20;99.90;;;;;;5006866;28;20098;-83
2021/01/17 12:03:40;;;;;;;19.97;11.10;;;-1.20;99.90;;;;;;5010371;28;20173;-82
2021/01/17 12:06:16;;;;;;;24.07;13.17;;;-1.20;99.90;;;;;;5013884;28;20078;-83
2021/01/17 12:08:52;;;;;;;25.08;13.38;;;-1.30;99.90;;;;;;4999667;28;20173;-82
2021/01/17 12:11:27;;;;;;;23.77;13.40;;;-1.20;99.90;;;;;;5006446;28;20094;-83
2021/01/17 12:13:53;;;;;;;;;;;-1.10;99.90;;;;;;5020850;28;20098;-83
2021/01/17 12:16:27;;;;;;;23.08;12.75;;;-1.20;99.90;;;;;;5007766;28;20025;-82
2021/01/17 12:18:53;;;;;;;23.15;13.77;;;-1.10;99.90;;;;;;5004319;28;20074;-83
2021/01/17 12:21:25;;;;;;;22.33;13.10;;;-1.10;99.90;;;;;;5005885;28;20443;-83
2021/01/17 12:23:52;;;;;;;24.80;12.43;;;-1.00;99.90;;;;;;5003945;28;20074;-83
2021/01/17 12:26:18;;;;;;;24.42;12.50;;;-1.00;99.90;;;;;;5006266;28;20078;-83
2021/01/17 12:28:44;;;;;;;26.10;13.70;;;-1.00;99.90;;;;;;5006762;28;20113;-83
2021/01/17 12:31:17;;;;;;;25.50;16.50;;;-1.00;99.90;;;;;;5006111;28;20113;-83
2021/01/17 12:33:43;;;;;;;20.58;11.85;;;-0.90;99.90;;;;;;5006627;28;20089;-82
2021/01/17 12:36:14;;;;;;;24.70;14.32;;;-1.00;99.90;;;;;;5005129;28;20095;-83
2021/01/17 12:38:40;;;;;;;23.23;13.50;;;-1.10;99.90;;;;;;5006554;28;20186;-83
2021/01/17 12:41:11;;;;;;;22.77;12.25;;;-1.10;99.90;;;;;;5004713;28;20197;-83
2021/01/17 12:43:39;;;;;;;28.35;13.60;;;-1.00;99.90;;;;;;5008676;28;20077;-83
2021/01/17 12:46:05;;;;;;;28.52;15.23;;;-1.00;99.90;;;;;;5010165;28;20169;-82
2021/01/17 12:48:31;;;;;;;32.33;16.53;;;-1.30;99.90;;;;;;5004280;28;20075;-83
2021/01/17 12:50:57;;;;;;;31.03;15.73;;;-1.30;99.90;;;;;;5008831;28;20102;-82